sensor_id;sensor_type;location;lat;lon;timestamp;P1;durP1;ratioP1;P2;durP2;ratioP2
72728;SDS011;60843;52.062;4.508;2023-11-22T00:01:02;9.38;;;5.20;;
72728;SDS011;60843;52.062;4.508;2023-11-22T00:03:29;12.43;;;4.95;;
72728;SDS011;60843;52.062;4.508;2023-11-22T00:05:54;12.40;;;5.35;;
72728;SDS011;60843;52.062;4.508;2023-11-22T00:08:20;9.27;;;5.43;;
72728;SDS011;60843;52.062;4.508;2023-11-22T00:10:45;10.88;;;4.82;;
72728;SDS011;60843;52.062;4.508;2023-11-22T00:13:11;10.60;;;4.88;;
72728;SDS011;60843;52.062;4.508;2023-11-22T00:15:37;9.07;;;4.90;;
72728;SDS011;60843;52.062;4.508;2023-11-22T00:18:02;11.95;;;5.03;;
72728;SDS011;60843;52.062;4.508;2023-11-22T00:20:29;11.77;;;5.75;;
72728;SDS011;60843;52.062;4.508;2023-11-22T00:22:55;11.05;;;5.40;;
72728;SDS011;60843;52.062;4.508;2023-11-22T00:25:23;10.82;;;5.03;;
72728;SDS011;60843;52.062;4.508;2023-11-22T00:27:48;8.95;;;4.95;;
72728;SDS011;60843;52.062;4.508;2023-11-22T00:30:14;9.07;;;3.95;;
72728;SDS011;60843;52.062;4.508;2023-11-22T00:32:40;12.48;;;4.70;;
72728;SDS011;60843;52.062;4.508;2023-11-22T00:35:06;11.05;;;5.40;;
72728;SDS011;60843;52.062;4.508;2023-11-22T00:37:33;10.90;;;5.13;;
72728;SDS011;60843;52.062;4.508;2023-11-22T00:40:00;11.05;;;5.13;;
72728;SDS011;60843;52.062;4.508;2023-11-22T00:42:26;12.02;;;5.75;;
72728;SDS011;60843;52.062;4.508;2023-11-22T00:44:52;11.82;;;5.13;;
72728;SDS011;60843;52.062;4.508;2023-11-22T00:47:18;11.20;;;5.10;;
72728;SDS011;60843;52.062;4.508;2023-11-22T00:49:44;8.18;;;4.53;;
72728;SDS011;60843;52.062;4.508;2023-11-22T00:52:09;11.77;;;4.93;;
72728;SDS011;60843;52.062;4.508;2023-11-22T00:54:35;10.88;;;5.43;;
72728;SDS011;60843;52.062;4.508;2023-11-22T00:57:01;12.90;;;5.47;;
72728;SDS011;60843;52.062;4.508;2023-11-22T00:59:26;14.00;;;4.32;;
72728;SDS011;60843;52.062;4.508;2023-11-22T01:01:52;9.93;;;4.83;;
72728;SDS011;60843;52.062;4.508;2023-11-22T01:04:17;9.02;;;4.82;;
72728;SDS011;60843;52.062;4.508;2023-11-22T01:06:43;7.43;;;4.45;;
72728;SDS011;60843;52.062;4.508;2023-11-22T01:09:09;10.38;;;4.93;;
72728;SDS011;60843;52.062;4.508;2023-11-22T01:11:35;9.80;;;4.60;;
72728;SDS011;60843;52.062;4.508;2023-11-22T01:14:00;10.67;;;4.33;;
72728;SDS011;60843;52.062;4.508;2023-11-22T01:16:26;8.25;;;4.65;;
72728;SDS011;60843;52.062;4.508;2023-11-22T01:18:52;9.70;;;4.32;;
72728;SDS011;60843;52.062;4.508;2023-11-22T01:21:18;18.52;;;4.93;;
72728;SDS011;60843;52.062;4.508;2023-11-22T01:23:44;10.30;;;3.90;;
72728;SDS011;60843;52.062;4.508;2023-11-22T01:26:10;11.38;;;4.82;;
72728;SDS011;60843;52.062;4.508;2023-11-22T01:28:36;12.65;;;5.72;;
72728;SDS011;60843;52.062;4.508;2023-11-22T01:31:02;9.68;;;5.03;;
72728;SDS011;60843;52.062;4.508;2023-11-22T01:33:28;11.07;;;5.13;;
72728;SDS011;60843;52.062;4.508;2023-11-22T01:35:54;8.80;;;4.63;;
72728;SDS011;60843;52.062;4.508;2023-11-22T01:38:20;10.57;;;4.95;;
72728;SDS011;60843;52.062;4.508;2023-11-22T01:40:45;11.52;;;4.82;;
72728;SDS011;60843;52.062;4.508;2023-11-22T01:43:16;10.70;;;4.88;;
72728;SDS011;60843;52.062;4.508;2023-11-22T01:45:42;11.27;;;4.82;;
72728;SDS011;60843;52.062;4.508;2023-11-22T01:48:08;10.00;;;5.05;;
72728;SDS011;60843;52.062;4.508;2023-11-22T01:50:36;11.65;;;5.70;;
72728;SDS011;60843;52.062;4.508;2023-11-22T01:53:02;8.90;;;4.63;;
72728;SDS011;60843;52.062;4.508;2023-11-22T01:55:28;10.13;;;5.05;;
72728;SDS011;60843;52.062;4.508;2023-11-22T01:57:55;8.85;;;4.75;;
72728;SDS011;60843;52.062;4.508;2023-11-22T02:00:21;11.75;;;5.07;;
72728;SDS011;60843;52.062;4.508;2023-11-22T02:02:47;8.52;;;4.05;;
72728;SDS011;60843;52.062;4.508;2023-11-22T02:05:13;10.30;;;4.78;;
72728;SDS011;60843;52.062;4.508;2023-11-22T02:07:39;11.20;;;5.60;;
72728;SDS011;60843;52.062;4.508;2023-11-22T02:10:06;10.15;;;4.78;;
72728;SDS011;60843;52.062;4.508;2023-11-22T02:12:32;11.70;;;4.65;;
72728;SDS011;60843;52.062;4.508;2023-11-22T02:14:58;13.15;;;5.25;;
72728;SDS011;60843;52.062;4.508;2023-11-22T02:17:24;9.15;;;4.55;;
72728;SDS011;60843;52.062;4.508;2023-11-22T02:19:49;10.48;;;5.07;;
72728;SDS011;60843;52.062;4.508;2023-11-22T02:22:15;10.30;;;5.13;;
72728;SDS011;60843;52.062;4.508;2023-11-22T02:24:40;11.80;;;5.38;;
72728;SDS011;60843;52.062;4.508;2023-11-22T02:27:06;13.25;;;5.60;;
72728;SDS011;60843;52.062;4.508;2023-11-22T02:29:31;16.00;;;6.18;;
72728;SDS011;60843;52.062;4.508;2023-11-22T02:31:57;10.15;;;4.97;;
72728;SDS011;60843;52.062;4.508;2023-11-22T02:34:22;10.15;;;4.80;;
72728;SDS011;60843;52.062;4.508;2023-11-22T02:36:48;14.90;;;6.50;;
72728;SDS011;60843;52.062;4.508;2023-11-22T02:39:14;12.83;;;6.23;;
72728;SDS011;60843;52.062;4.508;2023-11-22T02:41:39;11.68;;;4.90;;
72728;SDS011;60843;52.062;4.508;2023-11-22T02:44:05;10.05;;;4.85;;
72728;SDS011;60843;52.062;4.508;2023-11-22T02:46:33;11.82;;;6.00;;
72728;SDS011;60843;52.062;4.508;2023-11-22T02:48:58;8.57;;;4.78;;
72728;SDS011;60843;52.062;4.508;2023-11-22T02:51:24;11.38;;;4.93;;
72728;SDS011;60843;52.062;4.508;2023-11-22T02:53:50;9.10;;;4.55;;
72728;SDS011;60843;52.062;4.508;2023-11-22T02:56:16;9.77;;;4.45;;
72728;SDS011;60843;52.062;4.508;2023-11-22T02:58:42;11.55;;;5.95;;
72728;SDS011;60843;52.062;4.508;2023-11-22T03:01:07;10.25;;;5.20;;
72728;SDS011;60843;52.062;4.508;2023-11-22T03:03:33;10.20;;;5.32;;
72728;SDS011;60843;52.062;4.508;2023-11-22T03:05:59;10.55;;;4.95;;
72728;SDS011;60843;52.062;4.508;2023-11-22T03:08:25;13.02;;;5.75;;
72728;SDS011;60843;52.062;4.508;2023-11-22T03:10:51;11.55;;;5.60;;
72728;SDS011;60843;52.062;4.508;2023-11-22T03:13:16;12.02;;;5.32;;
72728;SDS011;60843;52.062;4.508;2023-11-22T03:15:43;11.68;;;5.35;;
72728;SDS011;60843;52.062;4.508;2023-11-22T03:18:09;11.27;;;4.65;;
72728;SDS011;60843;52.062;4.508;2023-11-22T03:20:36;11.02;;;5.28;;
72728;SDS011;60843;52.062;4.508;2023-11-22T03:23:02;11.95;;;4.97;;
72728;SDS011;60843;52.062;4.508;2023-11-22T03:25:28;10.02;;;5.05;;
72728;SDS011;60843;52.062;4.508;2023-11-22T03:27:54;12.65;;;5.32;;
72728;SDS011;60843;52.062;4.508;2023-11-22T03:30:19;10.95;;;5.45;;
72728;SDS011;60843;52.062;4.508;2023-11-22T03:32:45;13.85;;;5.85;;
72728;SDS011;60843;52.062;4.508;2023-11-22T03:35:11;12.75;;;6.30;;
72728;SDS011;60843;52.062;4.508;2023-11-22T03:37:37;12.23;;;5.20;;
72728;SDS011;60843;52.062;4.508;2023-11-22T03:40:03;10.95;;;5.53;;
72728;SDS011;60843;52.062;4.508;2023-11-22T03:42:29;13.45;;;5.78;;
72728;SDS011;60843;52.062;4.508;2023-11-22T03:44:54;12.15;;;5.47;;
72728;SDS011;60843;52.062;4.508;2023-11-22T03:47:20;13.80;;;5.60;;
72728;SDS011;60843;52.062;4.508;2023-11-22T03:49:46;11.75;;;4.97;;
72728;SDS011;60843;52.062;4.508;2023-11-22T03:52:11;12.73;;;6.13;;
72728;SDS011;60843;52.062;4.508;2023-11-22T03:54:37;14.23;;;5.95;;
72728;SDS011;60843;52.062;4.508;2023-11-22T03:57:04;12.07;;;5.50;;
72728;SDS011;60843;52.062;4.508;2023-11-22T03:59:30;10.35;;;4.95;;
72728;SDS011;60843;52.062;4.508;2023-11-22T04:01:55;11.30;;;5.28;;
72728;SDS011;60843;52.062;4.508;2023-11-22T04:04:22;10.70;;;5.53;;
72728;SDS011;60843;52.062;4.508;2023-11-22T04:06:47;10.95;;;5.05;;
72728;SDS011;60843;52.062;4.508;2023-11-22T04:09:13;10.27;;;4.90;;
72728;SDS011;60843;52.062;4.508;2023-11-22T04:11:41;12.07;;;4.75;;
72728;SDS011;60843;52.062;4.508;2023-11-22T04:14:07;11.18;;;6.00;;
72728;SDS011;60843;52.062;4.508;2023-11-22T04:16:33;11.30;;;5.65;;
72728;SDS011;60843;52.062;4.508;2023-11-22T04:18:58;12.23;;;5.35;;
72728;SDS011;60843;52.062;4.508;2023-11-22T04:21:24;10.80;;;6.00;;
72728;SDS011;60843;52.062;4.508;2023-11-22T04:23:49;10.07;;;5.23;;
72728;SDS011;60843;52.062;4.508;2023-11-22T04:26:15;12.23;;;6.07;;
72728;SDS011;60843;52.062;4.508;2023-11-22T04:28:41;12.45;;;5.45;;
72728;SDS011;60843;52.062;4.508;2023-11-22T04:31:06;13.15;;;6.00;;
72728;SDS011;60843;52.062;4.508;2023-11-22T04:33:33;11.90;;;5.93;;
72728;SDS011;60843;52.062;4.508;2023-11-22T04:35:59;15.85;;;6.75;;
72728;SDS011;60843;52.062;4.508;2023-11-22T04:38:25;14.57;;;6.85;;
72728;SDS011;60843;52.062;4.508;2023-11-22T04:40:51;12.40;;;5.80;;
72728;SDS011;60843;52.062;4.508;2023-11-22T04:43:17;13.13;;;7.25;;
72728;SDS011;60843;52.062;4.508;2023-11-22T04:45:42;15.38;;;6.50;;
72728;SDS011;60843;52.062;4.508;2023-11-22T04:48:08;12.55;;;6.18;;
72728;SDS011;60843;52.062;4.508;2023-11-22T04:50:34;16.73;;;6.20;;
72728;SDS011;60843;52.062;4.508;2023-11-22T04:53:00;12.18;;;6.05;;
72728;SDS011;60843;52.062;4.508;2023-11-22T04:55:28;12.45;;;6.22;;
72728;SDS011;60843;52.062;4.508;2023-11-22T04:57:54;13.50;;;6.55;;
72728;SDS011;60843;52.062;4.508;2023-11-22T05:00:23;14.15;;;5.85;;
72728;SDS011;60843;52.062;4.508;2023-11-22T05:02:49;19.35;;;6.55;;
72728;SDS011;60843;52.062;4.508;2023-11-22T05:05:14;15.60;;;6.13;;
72728;SDS011;60843;52.062;4.508;2023-11-22T05:07:40;12.57;;;6.22;;
72728;SDS011;60843;52.062;4.508;2023-11-22T05:10:05;13.30;;;6.15;;
72728;SDS011;60843;52.062;4.508;2023-11-22T05:12:35;15.77;;;6.53;;
72728;SDS011;60843;52.062;4.508;2023-11-22T05:15:01;14.32;;;7.35;;
72728;SDS011;60843;52.062;4.508;2023-11-22T05:17:27;16.05;;;6.82;;
72728;SDS011;60843;52.062;4.508;2023-11-22T05:19:52;13.80;;;6.28;;
72728;SDS011;60843;52.062;4.508;2023-11-22T05:22:18;17.27;;;7.05;;
72728;SDS011;60843;52.062;4.508;2023-11-22T05:24:43;14.38;;;6.30;;
72728;SDS011;60843;52.062;4.508;2023-11-22T05:27:09;14.77;;;6.80;;
72728;SDS011;60843;52.062;4.508;2023-11-22T05:29:34;14.68;;;7.30;;
72728;SDS011;60843;52.062;4.508;2023-11-22T05:32:00;13.23;;;6.05;;
72728;SDS011;60843;52.062;4.508;2023-11-22T05:34:27;17.15;;;6.80;;
72728;SDS011;60843;52.062;4.508;2023-11-22T05:36:53;15.57;;;6.57;;
72728;SDS011;60843;52.062;4.508;2023-11-22T05:39:19;13.95;;;5.88;;
72728;SDS011;60843;52.062;4.508;2023-11-22T05:41:47;15.90;;;6.82;;
72728;SDS011;60843;52.062;4.508;2023-11-22T05:44:13;13.90;;;6.70;;
72728;SDS011;60843;52.062;4.508;2023-11-22T05:46:39;17.25;;;6.30;;
72728;SDS011;60843;52.062;4.508;2023-11-22T05:49:05;14.00;;;6.72;;
72728;SDS011;60843;52.062;4.508;2023-11-22T05:51:30;14.57;;;6.50;;
72728;SDS011;60843;52.062;4.508;2023-11-22T05:53:56;12.98;;;6.45;;
72728;SDS011;60843;52.062;4.508;2023-11-22T05:56:21;16.15;;;6.70;;
72728;SDS011;60843;52.062;4.508;2023-11-22T05:58:47;16.90;;;7.43;;
72728;SDS011;60843;52.062;4.508;2023-11-22T06:01:15;17.58;;;7.15;;
72728;SDS011;60843;52.062;4.508;2023-11-22T06:03:41;15.10;;;6.65;;
72728;SDS011;60843;52.062;4.508;2023-11-22T06:06:07;13.57;;;6.18;;
72728;SDS011;60843;52.062;4.508;2023-11-22T06:08:33;21.98;;;7.13;;
72728;SDS011;60843;52.062;4.508;2023-11-22T06:10:58;12.98;;;6.30;;
72728;SDS011;60843;52.062;4.508;2023-11-22T06:13:25;14.60;;;6.55;;
72728;SDS011;60843;52.062;4.508;2023-11-22T06:15:51;12.60;;;6.07;;
72728;SDS011;60843;52.062;4.508;2023-11-22T06:18:16;15.00;;;7.55;;
72728;SDS011;60843;52.062;4.508;2023-11-22T06:20:44;16.92;;;6.85;;
72728;SDS011;60843;52.062;4.508;2023-11-22T06:23:10;14.55;;;6.28;;
72728;SDS011;60843;52.062;4.508;2023-11-22T06:25:35;15.25;;;6.30;;
72728;SDS011;60843;52.062;4.508;2023-11-22T06:28:01;16.30;;;6.47;;
72728;SDS011;60843;52.062;4.508;2023-11-22T06:30:27;14.48;;;6.40;;
72728;SDS011;60843;52.062;4.508;2023-11-22T06:32:53;14.65;;;6.13;;
72728;SDS011;60843;52.062;4.508;2023-11-22T06:35:21;15.50;;;6.57;;
72728;SDS011;60843;52.062;4.508;2023-11-22T06:37:47;12.43;;;5.60;;
72728;SDS011;60843;52.062;4.508;2023-11-22T06:40:12;15.32;;;6.20;;
72728;SDS011;60843;52.062;4.508;2023-11-22T06:42:39;16.52;;;6.35;;
72728;SDS011;60843;52.062;4.508;2023-11-22T06:45:07;14.32;;;6.05;;
72728;SDS011;60843;52.062;4.508;2023-11-22T06:47:35;13.65;;;6.07;;
72728;SDS011;60843;52.062;4.508;2023-11-22T06:50:01;17.65;;;7.63;;
72728;SDS011;60843;52.062;4.508;2023-11-22T06:52:29;17.48;;;7.32;;
72728;SDS011;60843;52.062;4.508;2023-11-22T06:54:54;15.05;;;6.95;;
72728;SDS011;60843;52.062;4.508;2023-11-22T06:57:20;17.13;;;6.90;;
72728;SDS011;60843;52.062;4.508;2023-11-22T06:59:53;15.82;;;6.65;;
72728;SDS011;60843;52.062;4.508;2023-11-22T07:02:19;16.20;;;6.97;;
72728;SDS011;60843;52.062;4.508;2023-11-22T07:04:44;15.82;;;7.18;;
72728;SDS011;60843;52.062;4.508;2023-11-22T07:07:10;13.63;;;6.80;;
72728;SDS011;60843;52.062;4.508;2023-11-22T07:09:36;13.52;;;6.45;;
72728;SDS011;60843;52.062;4.508;2023-11-22T07:12:02;15.13;;;7.18;;
72728;SDS011;60843;52.062;4.508;2023-11-22T07:14:31;19.88;;;7.95;;
72728;SDS011;60843;52.062;4.508;2023-11-22T07:16:57;15.43;;;6.45;;
72728;SDS011;60843;52.062;4.508;2023-11-22T07:19:23;15.52;;;7.28;;
72728;SDS011;60843;52.062;4.508;2023-11-22T07:21:48;13.98;;;6.68;;
72728;SDS011;60843;52.062;4.508;2023-11-22T07:24:14;15.90;;;7.05;;
72728;SDS011;60843;52.062;4.508;2023-11-22T07:26:41;16.15;;;7.30;;
72728;SDS011;60843;52.062;4.508;2023-11-22T07:29:07;13.00;;;7.18;;
72728;SDS011;60843;52.062;4.508;2023-11-22T07:31:33;18.80;;;7.35;;
72728;SDS011;60843;52.062;4.508;2023-11-22T07:33:59;16.33;;;7.28;;
72728;SDS011;60843;52.062;4.508;2023-11-22T07:36:36;15.48;;;7.13;;
72728;SDS011;60843;52.062;4.508;2023-11-22T07:39:03;15.60;;;7.20;;
72728;SDS011;60843;52.062;4.508;2023-11-22T07:41:29;18.50;;;6.68;;
72728;SDS011;60843;52.062;4.508;2023-11-22T07:43:56;21.45;;;7.05;;
72728;SDS011;60843;52.062;4.508;2023-11-22T07:46:22;17.90;;;7.07;;
72728;SDS011;60843;52.062;4.508;2023-11-22T07:48:48;11.50;;;6.43;;
72728;SDS011;60843;52.062;4.508;2023-11-22T07:51:14;15.50;;;6.80;;
72728;SDS011;60843;52.062;4.508;2023-11-22T07:56:09;16.95;;;6.85;;
72728;SDS011;60843;52.062;4.508;2023-11-22T07:58:36;12.90;;;6.25;;
72728;SDS011;60843;52.062;4.508;2023-11-22T08:01:02;17.67;;;6.72;;
72728;SDS011;60843;52.062;4.508;2023-11-22T08:05:56;13.70;;;5.87;;
72728;SDS011;60843;52.062;4.508;2023-11-22T08:08:22;20.13;;;7.70;;
72728;SDS011;60843;52.062;4.508;2023-11-22T08:10:48;14.02;;;6.88;;
72728;SDS011;60843;52.062;4.508;2023-11-22T08:13:14;20.75;;;8.13;;
72728;SDS011;60843;52.062;4.508;2023-11-22T08:15:41;19.23;;;7.55;;
72728;SDS011;60843;52.062;4.508;2023-11-22T08:18:06;19.38;;;8.23;;
72728;SDS011;60843;52.062;4.508;2023-11-22T08:20:32;18.90;;;7.70;;
72728;SDS011;60843;52.062;4.508;2023-11-22T08:22:58;17.67;;;7.60;;
72728;SDS011;60843;52.062;4.508;2023-11-22T08:25:23;18.88;;;7.63;;
72728;SDS011;60843;52.062;4.508;2023-11-22T08:27:49;16.63;;;7.82;;
72728;SDS011;60843;52.062;4.508;2023-11-22T08:30:14;20.35;;;8.43;;
72728;SDS011;60843;52.062;4.508;2023-11-22T08:32:44;17.90;;;7.97;;
72728;SDS011;60843;52.062;4.508;2023-11-22T08:35:13;19.33;;;8.30;;
72728;SDS011;60843;52.062;4.508;2023-11-22T08:37:40;16.27;;;7.75;;
72728;SDS011;60843;52.062;4.508;2023-11-22T08:40:07;18.83;;;8.40;;
72728;SDS011;60843;52.062;4.508;2023-11-22T08:42:33;19.15;;;7.95;;
72728;SDS011;60843;52.062;4.508;2023-11-22T08:45:00;18.58;;;8.02;;
72728;SDS011;60843;52.062;4.508;2023-11-22T08:47:26;21.15;;;8.27;;
72728;SDS011;60843;52.062;4.508;2023-11-22T08:49:52;18.85;;;7.53;;
72728;SDS011;60843;52.062;4.508;2023-11-22T08:52:18;19.23;;;7.60;;
72728;SDS011;60843;52.062;4.508;2023-11-22T08:54:44;19.85;;;6.95;;
72728;SDS011;60843;52.062;4.508;2023-11-22T08:57:11;19.77;;;8.30;;
72728;SDS011;60843;52.062;4.508;2023-11-22T08:59:39;18.77;;;8.38;;
72728;SDS011;60843;52.062;4.508;2023-11-22T09:02:05;18.50;;;8.30;;
72728;SDS011;60843;52.062;4.508;2023-11-22T09:04:33;18.05;;;8.18;;
72728;SDS011;60843;52.062;4.508;2023-11-22T09:07:00;18.63;;;7.63;;
72728;SDS011;60843;52.062;4.508;2023-11-22T09:09:26;17.17;;;8.05;;
72728;SDS011;60843;52.062;4.508;2023-11-22T09:11:58;19.38;;;8.15;;
72728;SDS011;60843;52.062;4.508;2023-11-22T09:16:50;16.95;;;7.68;;
72728;SDS011;60843;52.062;4.508;2023-11-22T09:19:23;16.85;;;7.95;;
72728;SDS011;60843;52.062;4.508;2023-11-22T09:21:50;16.83;;;7.15;;
72728;SDS011;60843;52.062;4.508;2023-11-22T09:24:15;16.25;;;7.55;;
72728;SDS011;60843;52.062;4.508;2023-11-22T09:26:41;18.35;;;8.20;;
72728;SDS011;60843;52.062;4.508;2023-11-22T09:29:07;18.98;;;8.02;;
72728;SDS011;60843;52.062;4.508;2023-11-22T09:31:33;18.55;;;8.32;;
72728;SDS011;60843;52.062;4.508;2023-11-22T09:33:58;17.77;;;8.47;;
72728;SDS011;60843;52.062;4.508;2023-11-22T09:36:23;19.50;;;7.55;;
72728;SDS011;60843;52.062;4.508;2023-11-22T09:38:52;18.30;;;8.63;;
72728;SDS011;60843;52.062;4.508;2023-11-22T09:41:18;16.13;;;8.02;;
72728;SDS011;60843;52.062;4.508;2023-11-22T09:43:44;18.17;;;7.72;;
72728;SDS011;60843;52.062;4.508;2023-11-22T09:46:14;17.83;;;8.00;;
72728;SDS011;60843;52.062;4.508;2023-11-22T09:48:42;18.23;;;7.55;;
72728;SDS011;60843;52.062;4.508;2023-11-22T09:53:36;17.53;;;7.53;;
72728;SDS011;60843;52.062;4.508;2023-11-22T09:56:09;15.45;;;7.05;;
72728;SDS011;60843;52.062;4.508;2023-11-22T09:58:45;15.88;;;7.53;;
72728;SDS011;60843;52.062;4.508;2023-11-22T10:01:10;14.30;;;6.90;;
72728;SDS011;60843;52.062;4.508;2023-11-22T10:03:38;19.40;;;8.52;;
72728;SDS011;60843;52.062;4.508;2023-11-22T10:06:04;20.10;;;7.85;;
72728;SDS011;60843;52.062;4.508;2023-11-22T10:08:33;23.38;;;7.38;;
72728;SDS011;60843;52.062;4.508;2023-11-22T10:10:59;21.67;;;7.95;;
72728;SDS011;60843;52.062;4.508;2023-11-22T10:13:25;18.80;;;8.48;;
72728;SDS011;60843;52.062;4.508;2023-11-22T10:15:51;18.75;;;8.23;;
72728;SDS011;60843;52.062;4.508;2023-11-22T10:18:17;17.63;;;6.72;;
72728;SDS011;60843;52.062;4.508;2023-11-22T10:20:44;15.88;;;7.18;;
72728;SDS011;60843;52.062;4.508;2023-11-22T10:23:12;17.45;;;7.63;;
72728;SDS011;60843;52.062;4.508;2023-11-22T10:25:46;19.90;;;7.95;;
72728;SDS011;60843;52.062;4.508;2023-11-22T10:28:19;16.20;;;7.20;;
72728;SDS011;60843;52.062;4.508;2023-11-22T10:30:46;18.95;;;8.48;;
72728;SDS011;60843;52.062;4.508;2023-11-22T10:33:13;15.20;;;7.35;;
72728;SDS011;60843;52.062;4.508;2023-11-22T10:35:49;19.38;;;7.28;;
72728;SDS011;60843;52.062;4.508;2023-11-22T10:38:19;19.48;;;7.65;;
72728;SDS011;60843;52.062;4.508;2023-11-22T10:40:45;15.30;;;7.03;;
72728;SDS011;60843;52.062;4.508;2023-11-22T10:43:13;16.15;;;7.72;;
72728;SDS011;60843;52.062;4.508;2023-11-22T10:45:42;13.43;;;6.65;;
72728;SDS011;60843;52.062;4.508;2023-11-22T10:48:11;16.40;;;7.20;;
72728;SDS011;60843;52.062;4.508;2023-11-22T10:50:41;15.05;;;6.90;;
72728;SDS011;60843;52.062;4.508;2023-11-22T10:53:07;15.32;;;7.05;;
72728;SDS011;60843;52.062;4.508;2023-11-22T10:55:32;15.25;;;7.05;;
72728;SDS011;60843;52.062;4.508;2023-11-22T10:58:02;14.75;;;6.93;;
72728;SDS011;60843;52.062;4.508;2023-11-22T11:00:31;13.65;;;6.65;;
72728;SDS011;60843;52.062;4.508;2023-11-22T11:02:59;16.65;;;7.95;;
72728;SDS011;60843;52.062;4.508;2023-11-22T11:08:07;14.80;;;5.78;;
72728;SDS011;60843;52.062;4.508;2023-11-22T11:10:38;9.80;;;4.78;;
72728;SDS011;60843;52.062;4.508;2023-11-22T11:13:05;14.27;;;5.80;;
72728;SDS011;60843;52.062;4.508;2023-11-22T11:15:31;13.23;;;6.75;;
72728;SDS011;60843;52.062;4.508;2023-11-22T11:17:57;10.90;;;5.28;;
72728;SDS011;60843;52.062;4.508;2023-11-22T11:20:23;14.48;;;6.75;;
72728;SDS011;60843;52.062;4.508;2023-11-22T11:22:49;13.68;;;5.93;;
72728;SDS011;60843;52.062;4.508;2023-11-22T11:25:18;10.88;;;6.10;;
72728;SDS011;60843;52.062;4.508;2023-11-22T11:27:43;14.98;;;5.80;;
72728;SDS011;60843;52.062;4.508;2023-11-22T11:32:57;12.23;;;5.95;;
72728;SDS011;60843;52.062;4.508;2023-11-22T11:35:39;11.95;;;6.70;;
72728;SDS011;60843;52.062;4.508;2023-11-22T11:38:06;10.93;;;5.75;;
72728;SDS011;60843;52.062;4.508;2023-11-22T11:40:34;11.75;;;6.22;;
72728;SDS011;60843;52.062;4.508;2023-11-22T11:43:00;15.70;;;6.45;;
72728;SDS011;60843;52.062;4.508;2023-11-22T11:45:26;12.95;;;6.10;;
72728;SDS011;60843;52.062;4.508;2023-11-22T11:47:52;13.88;;;6.80;;
72728;SDS011;60843;52.062;4.508;2023-11-22T11:50:20;13.45;;;6.05;;
72728;SDS011;60843;52.062;4.508;2023-11-22T11:52:46;11.70;;;5.50;;
72728;SDS011;60843;52.062;4.508;2023-11-22T11:55:12;11.45;;;6.07;;
72728;SDS011;60843;52.062;4.508;2023-11-22T11:57:37;14.23;;;6.25;;
72728;SDS011;60843;52.062;4.508;2023-11-22T12:00:03;10.65;;;5.68;;
72728;SDS011;60843;52.062;4.508;2023-11-22T12:02:30;10.48;;;5.70;;
72728;SDS011;60843;52.062;4.508;2023-11-22T12:04:56;11.82;;;5.55;;
72728;SDS011;60843;52.062;4.508;2023-11-22T12:07:21;11.48;;;5.00;;
72728;SDS011;60843;52.062;4.508;2023-11-22T12:09:47;10.65;;;4.90;;
72728;SDS011;60843;52.062;4.508;2023-11-22T12:12:12;9.80;;;4.95;;
72728;SDS011;60843;52.062;4.508;2023-11-22T12:14:40;11.48;;;5.53;;
72728;SDS011;60843;52.062;4.508;2023-11-22T12:17:06;11.10;;;5.63;;
72728;SDS011;60843;52.062;4.508;2023-11-22T12:19:32;12.35;;;5.07;;
72728;SDS011;60843;52.062;4.508;2023-11-22T12:21:59;13.30;;;5.65;;
72728;SDS011;60843;52.062;4.508;2023-11-22T12:24:25;9.18;;;4.72;;
72728;SDS011;60843;52.062;4.508;2023-11-22T12:26:50;13.82;;;5.47;;
72728;SDS011;60843;52.062;4.508;2023-11-22T12:29:16;10.45;;;4.80;;
72728;SDS011;60843;52.062;4.508;2023-11-22T12:31:45;12.15;;;4.97;;
72728;SDS011;60843;52.062;4.508;2023-11-22T12:34:12;11.75;;;5.78;;
72728;SDS011;60843;52.062;4.508;2023-11-22T12:36:40;11.48;;;5.05;;
72728;SDS011;60843;52.062;4.508;2023-11-22T12:39:09;8.93;;;4.47;;
72728;SDS011;60843;52.062;4.508;2023-11-22T12:41:51;10.88;;;5.05;;
72728;SDS011;60843;52.062;4.508;2023-11-22T12:44:17;11.93;;;5.07;;
72728;SDS011;60843;52.062;4.508;2023-11-22T12:49:18;11.98;;;4.70;;
72728;SDS011;60843;52.062;4.508;2023-11-22T12:51:47;11.00;;;4.85;;
72728;SDS011;60843;52.062;4.508;2023-11-22T12:54:14;10.77;;;5.30;;
72728;SDS011;60843;52.062;4.508;2023-11-22T12:56:40;10.27;;;5.38;;
72728;SDS011;60843;52.062;4.508;2023-11-22T12:59:06;12.13;;;5.38;;
72728;SDS011;60843;52.062;4.508;2023-11-22T13:01:33;10.57;;;4.75;;
72728;SDS011;60843;52.062;4.508;2023-11-22T13:04:00;11.02;;;4.95;;
72728;SDS011;60843;52.062;4.508;2023-11-22T13:06:26;13.23;;;5.40;;
72728;SDS011;60843;52.062;4.508;2023-11-22T13:08:51;10.55;;;5.32;;
72728;SDS011;60843;52.062;4.508;2023-11-22T13:11:20;9.52;;;4.88;;
72728;SDS011;60843;52.062;4.508;2023-11-22T13:13:47;9.90;;;5.18;;
72728;SDS011;60843;52.062;4.508;2023-11-22T13:16:12;11.25;;;4.40;;
72728;SDS011;60843;52.062;4.508;2023-11-22T13:21:06;9.60;;;5.13;;
72728;SDS011;60843;52.062;4.508;2023-11-22T13:23:31;11.60;;;5.05;;
72728;SDS011;60843;52.062;4.508;2023-11-22T13:25:58;10.85;;;5.22;;
72728;SDS011;60843;52.062;4.508;2023-11-22T13:28:24;10.98;;;5.30;;
72728;SDS011;60843;52.062;4.508;2023-11-22T13:30:50;10.88;;;5.38;;
72728;SDS011;60843;52.062;4.508;2023-11-22T13:33:16;16.13;;;5.57;;
72728;SDS011;60843;52.062;4.508;2023-11-22T13:35:42;12.52;;;6.07;;
72728;SDS011;60843;52.062;4.508;2023-11-22T13:38:09;12.48;;;5.70;;
72728;SDS011;60843;52.062;4.508;2023-11-22T13:40:38;11.18;;;5.72;;
72728;SDS011;60843;52.062;4.508;2023-11-22T13:43:06;14.02;;;6.05;;
72728;SDS011;60843;52.062;4.508;2023-11-22T13:45:35;12.40;;;5.40;;
72728;SDS011;60843;52.062;4.508;2023-11-22T13:48:03;10.90;;;5.75;;
72728;SDS011;60843;52.062;4.508;2023-11-22T13:50:31;9.85;;;5.28;;
72728;SDS011;60843;52.062;4.508;2023-11-22T13:52:57;15.70;;;6.53;;
72728;SDS011;60843;52.062;4.508;2023-11-22T13:55:24;13.27;;;6.32;;
72728;SDS011;60843;52.062;4.508;2023-11-22T13:57:50;10.60;;;6.05;;
72728;SDS011;60843;52.062;4.508;2023-11-22T14:00:16;11.30;;;6.00;;
72728;SDS011;60843;52.062;4.508;2023-11-22T14:02:48;14.75;;;6.57;;
72728;SDS011;60843;52.062;4.508;2023-11-22T14:07:49;10.23;;;5.35;;
72728;SDS011;60843;52.062;4.508;2023-11-22T14:10:16;10.57;;;5.55;;
72728;SDS011;60843;52.062;4.508;2023-11-22T14:12:44;12.15;;;6.20;;
72728;SDS011;60843;52.062;4.508;2023-11-22T14:15:11;12.13;;;5.88;;
72728;SDS011;60843;52.062;4.508;2023-11-22T14:17:37;10.68;;;6.10;;
72728;SDS011;60843;52.062;4.508;2023-11-22T14:20:06;13.57;;;6.60;;
72728;SDS011;60843;52.062;4.508;2023-11-22T14:22:39;10.75;;;5.75;;
72728;SDS011;60843;52.062;4.508;2023-11-22T14:25:06;11.80;;;6.25;;
72728;SDS011;60843;52.062;4.508;2023-11-22T14:27:41;14.13;;;7.15;;
72728;SDS011;60843;52.062;4.508;2023-11-22T14:30:08;11.02;;;5.90;;
72728;SDS011;60843;52.062;4.508;2023-11-22T14:32:35;12.30;;;6.18;;
72728;SDS011;60843;52.062;4.508;2023-11-22T14:35:04;13.57;;;6.63;;
72728;SDS011;60843;52.062;4.508;2023-11-22T14:37:30;16.60;;;6.65;;
72728;SDS011;60843;52.062;4.508;2023-11-22T14:39:59;13.32;;;6.38;;
72728;SDS011;60843;52.062;4.508;2023-11-22T14:42:25;15.55;;;6.53;;
72728;SDS011;60843;52.062;4.508;2023-11-22T14:44:51;16.10;;;7.05;;
72728;SDS011;60843;52.062;4.508;2023-11-22T14:47:17;16.05;;;6.65;;
72728;SDS011;60843;52.062;4.508;2023-11-22T14:49:49;16.85;;;7.88;;
72728;SDS011;60843;52.062;4.508;2023-11-22T14:52:18;16.27;;;7.72;;
72728;SDS011;60843;52.062;4.508;2023-11-22T14:54:46;16.83;;;7.80;;